createdAt,value
2023-01-04T14:43:02.151Z,9.10
2023-01-04T14:49:07.832Z,9.10
2023-01-04T14:55:13.887Z,9.00
2023-01-04T15:01:15.772Z,9.00
2023-01-04T15:07:35.818Z,9.00
2023-01-04T15:13:39.805Z,9.00
2023-01-04T15:19:41.850Z,9.00
2023-01-04T15:25:44.798Z,9.10
2023-01-04T15:31:46.917Z,9.00
2023-01-04T15:37:49.376Z,9.00
2023-01-04T15:43:51.213Z,9.00
2023-01-04T15:49:53.060Z,9.10
2023-01-04T15:55:54.891Z,9.10
2023-01-04T16:01:57.049Z,9.10
2023-01-04T16:07:59.009Z,9.10
2023-01-04T16:14:01.003Z,9.10
2023-01-04T16:20:03.319Z,9.10
2023-01-04T16:26:09.546Z,9.10
2023-01-04T16:32:11.446Z,9.10
2023-01-04T16:38:13.261Z,9.20
2023-01-04T16:44:15.108Z,9.30
2023-01-04T16:50:17.022Z,9.40
2023-01-04T16:56:20.901Z,9.40
2023-01-04T17:02:23.435Z,9.40
2023-01-04T17:08:27.227Z,9.40
2023-01-04T17:14:30.749Z,9.30
2023-01-04T17:20:32.684Z,9.30
2023-01-04T17:26:34.455Z,9.30
2023-01-04T17:32:36.319Z,9.30
2023-01-04T17:38:38.399Z,9.30
2023-01-04T17:44:40.580Z,9.30
2023-01-04T17:50:42.885Z,9.30
2023-01-04T17:56:47.654Z,9.30
2023-01-04T18:02:49.521Z,9.10
2023-01-04T18:08:51.375Z,9.00
2023-01-04T18:14:53.259Z,9.10
2023-01-04T18:20:58.935Z,9.30
2023-01-04T18:27:20.982Z,9.40
2023-01-04T18:33:23.369Z,9.50
2023-01-04T18:39:25.501Z,9.50
2023-01-04T18:45:27.447Z,9.60
2023-01-04T18:51:29.790Z,9.70
2023-01-04T18:57:32.338Z,9.80
2023-01-04T19:03:38.025Z,9.80
2023-01-04T19:09:39.928Z,10.00
2023-01-04T19:15:47.746Z,10.20
2023-01-04T19:21:50.032Z,10.20
2023-01-04T19:27:51.956Z,10.30
2023-01-04T19:33:53.922Z,10.30
2023-01-04T19:39:55.830Z,10.20
2023-01-04T19:45:57.856Z,10.30
2023-01-04T19:52:00.661Z,10.40
2023-01-04T19:58:02.673Z,10.50
2023-01-04T20:04:04.787Z,10.50
2023-01-04T20:10:13.844Z,10.50
2023-01-04T20:16:17.398Z,10.50
2023-01-04T20:22:19.521Z,10.60
2023-01-04T20:28:24.400Z,10.70
2023-01-04T20:34:26.780Z,10.80
2023-01-04T20:40:28.929Z,10.70
2023-01-04T20:46:33.051Z,10.60
2023-01-04T20:52:35.120Z,10.60
2023-01-04T20:58:37.803Z,10.80
2023-01-04T21:04:39.666Z,10.90
2023-01-04T21:10:43.037Z,11.00
2023-01-04T21:16:45.494Z,10.90
2023-01-04T21:22:47.400Z,10.70
2023-01-04T21:28:49.271Z,10.40
2023-01-04T21:34:53.011Z,10.30
2023-01-04T21:40:54.843Z,10.30
2023-01-04T21:46:56.715Z,10.20
2023-01-04T21:52:58.804Z,10.40
2023-01-04T21:59:00.602Z,10.70
2023-01-04T22:05:02.541Z,10.90
2023-01-04T22:11:05.021Z,11.00
2023-01-04T22:17:06.871Z,11.00
2023-01-04T22:23:08.681Z,11.10
2023-01-04T22:29:11.319Z,11.10
2023-01-04T22:35:13.196Z,11.00
2023-01-04T22:41:16.956Z,10.90
2023-01-04T22:47:19.000Z,10.80
2023-01-04T22:53:21.173Z,10.70
2023-01-04T22:59:23.257Z,10.80
2023-01-04T23:05:25.111Z,10.80
2023-01-04T23:11:28.832Z,10.80
2023-01-04T23:17:30.653Z,10.80
2023-01-04T23:23:35.594Z,10.80
2023-01-04T23:29:37.551Z,10.80
2023-01-04T23:35:39.508Z,10.80
2023-01-04T23:41:45.157Z,10.80
2023-01-04T23:47:49.047Z,10.80
2023-01-04T23:53:50.872Z,10.90
2023-01-04T23:59:52.768Z,10.90
